To NAV CANADA Home Page Login to a new session Search on AWWS site Feedback and Comments Disclaimer Vers la page française équivalente Tips FAQ What's new on the site To the Forecasts and Observations / NOTAM section To "File a Flight Plan" website Publications and other links Update of the User's profile FIC Telephone Numbers My Weather Data Folder Route Weather Data Regional Weather Data Local Weather Data To the Forecasts and Observations / NOTAM section
Request Generated 10/18/2017 at 03:51:34 UTC . Weather information available at that time is displayed.

METAR/TAF

KINDERSLEY/KINDERSLEY REGIONAL/SK    

METAR CYKY 180300Z 30025G37KT 10SM -SHRA BKN020 OVC070 07/03 A2933
RMK SC6AC2 SLP945 DENSITY ALT 2600FT=
SPECI CYKY 180208Z 30028G47KT 3SM -SHRA SCT021 OVC067 08/04 A2924 RMK
SC3AC5 CVCTV CLD EMBD PRESRR SLP918 DENSITY ALT 2800FT=
METAR CYKY 180200Z 29031G43KT 10SM SCT020 OVC083 09/05 A2923 RMK
SC3AC5 PRESRR SLP914 DENSITY ALT 3000FT=
SPECI CYKY 180143Z 30033G46KT 10SM FEW009 BKN083 11/04 A2921 RMK
SC1AC6 PRESRR SLP903 DENSITY ALT 3200FT=
SPECI CYKY 180126Z CCA 30033G59KT 240V310 10SM -SHRA FEW009 BKN075
13/04 A2915 RMK SC1AC6 CVCTV CLD EMBD PRESRR SLP880 DENSITY ALT
3500FT=
SPECI CYKY 180126Z 30033G59KT 240V310 10SM -SHRA FEW009 BKN075 13/04
A2915 RMK SC1AC6 PRESRR SLP880 DENSITY ALT 3500FT=
METAR CYKY 180100Z 23033G49KT 3SM BLDU SCT110 20/M05 A2911 RMK AC3
SLP861 DENSITY ALT 4300FT=

CYKY - No TAF is issued for this station

Your time UTC time
Weather data provided by Environment Canada and NAV CANADA